createdAt,value
2018-05-07T00:01:34.325Z,16.90
2018-05-07T00:04:02.060Z,16.80
2018-05-07T00:06:29.541Z,16.80
2018-05-07T00:08:56.953Z,16.80
2018-05-07T00:11:24.389Z,16.80
2018-05-07T00:13:51.843Z,16.70
2018-05-07T00:16:19.313Z,16.70
2018-05-07T00:18:46.768Z,16.70
2018-05-07T00:21:14.221Z,16.60
2018-05-07T00:23:41.699Z,16.60
2018-05-07T00:26:09.147Z,16.60
2018-05-07T00:28:36.693Z,16.50
2018-05-07T00:31:04.303Z,16.50
2018-05-07T00:33:31.877Z,16.40
2018-05-07T00:35:59.333Z,16.40
2018-05-07T00:38:26.905Z,16.40
2018-05-07T00:40:54.365Z,16.40
2018-05-07T00:43:22.631Z,16.20
2018-05-07T00:45:50.390Z,16.20
2018-05-07T00:48:17.983Z,16.10
2018-05-07T00:50:48.310Z,16.10
2018-05-07T00:53:15.765Z,16.10
2018-05-07T00:55:43.285Z,16.00
2018-05-07T00:58:10.872Z,15.90
2018-05-07T01:00:39.095Z,15.80
2018-05-07T01:03:06.809Z,15.80
2018-05-07T01:05:34.241Z,15.80
2018-05-07T01:08:01.709Z,15.80
2018-05-07T01:10:29.168Z,15.80
2018-05-07T01:12:56.618Z,15.80
2018-05-07T01:15:24.090Z,15.70
2018-05-07T01:17:52.429Z,15.60
2018-05-07T01:20:19.895Z,15.60
2018-05-07T01:22:47.369Z,15.50
2018-05-07T01:25:14.837Z,15.50
2018-05-07T01:27:42.373Z,15.40
2018-05-07T01:30:09.851Z,15.30
2018-05-07T01:32:37.478Z,15.20
2018-05-07T01:35:05.061Z,15.20
2018-05-07T01:37:32.518Z,15.20
2018-05-07T01:40:00.586Z,15.20
2018-05-07T01:42:28.224Z,15.20
2018-05-07T01:44:55.717Z,15.10
2018-05-07T01:47:23.265Z,15.10
2018-05-07T01:49:51.021Z,15.00
2018-05-07T01:52:18.805Z,15.00
2018-05-07T01:54:46.549Z,14.90
2018-05-07T01:57:14.039Z,14.90
2018-05-07T01:59:41.673Z,14.90
2018-05-07T02:02:09.137Z,14.90
2018-05-07T02:04:36.601Z,14.90
2018-05-07T02:07:04.149Z,14.90
2018-05-07T02:09:31.788Z,14.90
2018-05-07T02:11:59.254Z,14.80
2018-05-07T02:14:26.720Z,14.80
2018-05-07T02:16:54.193Z,14.80
2018-05-07T02:19:21.733Z,14.80
2018-05-07T02:21:49.210Z,14.70
2018-05-07T02:24:16.952Z,14.60
2018-05-07T02:26:44.413Z,14.60
2018-05-07T02:29:12.153Z,14.60
2018-05-07T02:31:39.630Z,14.60
2018-05-07T02:34:07.285Z,14.70
2018-05-07T02:36:34.854Z,14.60
2018-05-07T02:39:02.381Z,14.60
2018-05-07T02:41:29.983Z,14.60
2018-05-07T02:43:57.449Z,14.60
2018-05-07T02:46:24.894Z,14.60
2018-05-07T02:48:52.360Z,14.50
2018-05-07T02:51:19.821Z,14.50
2018-05-07T02:53:47.354Z,14.50
2018-05-07T02:56:15.126Z,14.40
2018-05-07T02:58:42.779Z,14.50
2018-05-07T03:01:10.242Z,14.40
2018-05-07T03:03:39.815Z,14.30
2018-05-07T03:06:07.329Z,14.30
2018-05-07T03:08:35.458Z,14.20
2018-05-07T03:11:03.803Z,14.20
2018-05-07T03:13:32.731Z,14.10
2018-05-07T03:16:01.242Z,14.10
2018-05-07T03:18:28.706Z,14.10
2018-05-07T03:20:56.441Z,14.10
2018-05-07T03:23:24.286Z,14.00
2018-05-07T03:25:51.956Z,14.00
2018-05-07T03:28:19.738Z,14.00
2018-05-07T03:30:48.082Z,14.00
2018-05-07T03:33:15.551Z,14.00
2018-05-07T03:35:43.017Z,14.00
2018-05-07T03:38:10.799Z,14.00
2018-05-07T03:40:38.306Z,14.00
2018-05-07T03:43:05.914Z,13.90
2018-05-07T03:45:33.474Z,13.90
2018-05-07T03:48:00.938Z,13.80
2018-05-07T03:50:28.699Z,13.70
2018-05-07T03:52:56.463Z,13.70
2018-05-07T03:55:25.165Z,13.60
2018-05-07T03:57:52.825Z,13.60
2018-05-07T04:00:20.287Z,13.60
2018-05-07T04:02:48.401Z,13.50
2018-05-07T04:05:15.858Z,13.50
2018-05-07T04:07:43.322Z,13.60
2018-05-07T04:10:11.722Z,13.60
2018-05-07T04:12:43.516Z,13.60
2018-05-07T04:15:11.898Z,13.60
2018-05-07T04:17:53.505Z,13.70
2018-05-07T04:20:33.039Z,13.70
2018-05-07T04:23:12.369Z,13.70
2018-05-07T04:25:40.078Z,13.70
2018-05-07T04:28:07.550Z,13.70
2018-05-07T04:30:35.174Z,13.60
2018-05-07T04:33:02.685Z,13.70
2018-05-07T04:35:30.150Z,13.70
2018-05-07T04:37:58.469Z,13.70
2018-05-07T04:40:25.962Z,13.60
2018-05-07T04:42:54.517Z,13.70
2018-05-07T04:45:22.070Z,13.60
2018-05-07T04:47:49.658Z,13.60
2018-05-07T04:50:19.854Z,13.60
2018-05-07T04:52:49.199Z,13.60
2018-05-07T04:55:16.862Z,13.60
2018-05-07T04:57:44.598Z,13.60
2018-05-07T05:00:12.930Z,13.50
2018-05-07T05:02:40.398Z,13.50
2018-05-07T05:05:07.910Z,13.50
2018-05-07T05:07:35.453Z,13.40
2018-05-07T05:10:02.938Z,13.40
2018-05-07T05:12:30.541Z,13.40
2018-05-07T05:14:58.129Z,13.50
2018-05-07T05:17:25.758Z,13.50
2018-05-07T05:19:53.966Z,13.50
2018-05-07T05:22:21.435Z,13.60
2018-05-07T05:24:49.186Z,13.70
2018-05-07T05:27:16.954Z,13.80
2018-05-07T05:29:45.563Z,13.90
2018-05-07T05:32:13.563Z,13.90
2018-05-07T05:34:42.236Z,14.00
2018-05-07T05:37:09.859Z,14.10
2018-05-07T05:39:37.330Z,14.20
2018-05-07T05:42:04.981Z,14.20
2018-05-07T05:44:32.617Z,14.30
2018-05-07T05:47:01.276Z,14.40
2018-05-07T05:49:28.979Z,14.40
2018-05-07T05:51:56.650Z,14.50
2018-05-07T05:54:24.201Z,14.60
2018-05-07T05:56:51.938Z,14.70
2018-05-07T05:59:19.420Z,14.80
2018-05-07T06:01:46.889Z,14.90
2018-05-07T06:04:14.550Z,15.00
2018-05-07T06:06:42.913Z,15.10
2018-05-07T06:09:10.498Z,15.10
2018-05-07T06:11:38.176Z,15.20
2018-05-07T06:14:05.646Z,15.30
2018-05-07T06:16:33.142Z,15.40
2018-05-07T06:19:01.446Z,15.50
2018-05-07T06:21:32.655Z,15.60
2018-05-07T06:24:01.142Z,15.60
2018-05-07T06:26:28.713Z,15.70
2018-05-07T06:28:56.186Z,15.80
2018-05-07T06:31:23.650Z,15.90
2018-05-07T06:33:51.794Z,16.00
2018-05-07T06:36:21.351Z,16.10
2018-05-07T06:38:48.830Z,16.10
2018-05-07T06:41:16.290Z,16.20
2018-05-07T06:43:44.746Z,16.40
2018-05-07T06:46:12.205Z,16.40
2018-05-07T06:48:40.285Z,16.50
2018-05-07T06:51:08.303Z,16.50
2018-05-07T06:53:35.778Z,16.60
2018-05-07T06:56:04.460Z,16.70
2018-05-07T06:58:33.562Z,16.80
2018-05-07T07:01:02.382Z,16.80
2018-05-07T07:03:29.869Z,16.80
2018-05-07T07:05:58.015Z,16.90
2018-05-07T07:08:25.783Z,17.00
2018-05-07T07:10:53.809Z,17.00
2018-05-07T07:13:22.042Z,17.20
2018-05-07T07:15:49.771Z,17.20
2018-05-07T07:18:17.287Z,17.20
2018-05-07T07:20:44.771Z,17.30
2018-05-07T07:23:12.298Z,17.40
2018-05-07T07:25:40.333Z,17.40
2018-05-07T07:28:07.806Z,17.50
2018-05-07T07:30:36.162Z,17.50
2018-05-07T07:33:03.660Z,17.60
2018-05-07T07:35:31.335Z,17.60
2018-05-07T07:37:59.918Z,17.70
2018-05-07T07:40:28.502Z,17.90
2018-05-07T07:42:57.018Z,17.80
2018-05-07T07:47:58.710Z,18.10
2018-05-07T07:50:26.165Z,18.00
2018-05-07T07:52:53.666Z,18.10
2018-05-07T07:55:21.149Z,18.10
2018-05-07T07:57:48.607Z,18.20
2018-05-07T08:00:16.062Z,18.30
2018-05-07T08:02:44.340Z,18.30
2018-05-07T08:05:11.990Z,18.40
2018-05-07T08:07:39.483Z,18.50
2018-05-07T08:10:06.941Z,18.50
2018-05-07T08:12:34.415Z,18.60
2018-05-07T08:15:02.110Z,18.60
2018-05-07T08:17:30.514Z,18.70
2018-05-07T08:19:58.105Z,18.70
2018-05-07T08:22:26.010Z,18.80
2018-05-07T08:24:53.632Z,18.80
2018-05-07T08:27:21.143Z,18.80
2018-05-07T08:29:49.010Z,18.90
2018-05-07T08:32:16.766Z,18.90
2018-05-07T08:34:44.437Z,19.00
2018-05-07T08:37:12.113Z,19.00
2018-05-07T08:39:39.737Z,19.10
2018-05-07T08:42:07.402Z,19.20
2018-05-07T08:44:34.869Z,19.20
2018-05-07T08:47:02.366Z,19.30
2018-05-07T08:49:29.854Z,19.50
2018-05-07T08:51:57.915Z,19.50
2018-05-07T08:54:25.389Z,19.60
2018-05-07T08:56:53.154Z,19.60
2018-05-07T08:59:20.610Z,19.70
2018-05-07T09:01:48.098Z,19.70
2018-05-07T09:04:15.576Z,19.80
2018-05-07T09:06:43.065Z,19.80
2018-05-07T09:09:10.532Z,19.80
2018-05-07T09:11:38.002Z,19.80
2018-05-07T09:14:05.479Z,19.90
2018-05-07T09:16:33.710Z,20.00
2018-05-07T09:19:01.249Z,20.00
2018-05-07T09:21:28.668Z,20.00
2018-05-07T09:23:56.145Z,20.00
2018-05-07T09:26:23.621Z,20.00
2018-05-07T09:28:51.145Z,20.10
2018-05-07T09:31:20.090Z,20.20
2018-05-07T09:33:47.574Z,20.20
2018-05-07T09:36:15.037Z,20.30
2018-05-07T09:38:43.279Z,20.30
2018-05-07T09:41:11.715Z,20.30
2018-05-07T09:43:39.186Z,20.30
2018-05-07T09:46:06.662Z,20.40
2018-05-07T09:48:34.147Z,20.50
2018-05-07T09:51:02.629Z,20.50
2018-05-07T09:53:30.106Z,20.60
2018-05-07T09:55:58.324Z,20.60
2018-05-07T09:58:26.350Z,20.60
2018-05-07T10:00:53.814Z,20.60
2018-05-07T10:03:22.146Z,20.70
2018-05-07T10:05:49.665Z,20.70
2018-05-07T10:08:17.128Z,20.80
2018-05-07T10:10:44.692Z,20.80
2018-05-07T10:13:12.153Z,20.90
2018-05-07T10:15:40.482Z,20.90
2018-05-07T10:18:08.806Z,20.90
2018-05-07T10:20:36.278Z,21.00
2018-05-07T10:23:03.742Z,21.00
2018-05-07T10:25:31.219Z,21.10
2018-05-07T10:27:59.752Z,21.10
2018-05-07T10:30:28.422Z,21.20
2018-05-07T10:32:57.113Z,21.20
2018-05-07T10:35:24.597Z,21.20
2018-05-07T10:37:53.405Z,21.30
2018-05-07T10:40:20.854Z,21.20
2018-05-07T10:42:49.615Z,21.30
2018-05-07T10:45:17.019Z,21.30
2018-05-07T10:47:44.490Z,21.30
2018-05-07T10:50:12.718Z,21.30
2018-05-07T10:52:40.185Z,21.30
2018-05-07T10:55:07.641Z,21.40
2018-05-07T10:57:35.426Z,21.40
2018-05-07T11:00:02.882Z,21.40
2018-05-07T11:02:31.443Z,21.50
2018-05-07T11:05:01.126Z,21.50
2018-05-07T11:07:30.731Z,21.50
2018-05-07T11:09:58.166Z,21.60
2018-05-07T11:12:26.526Z,21.60
2018-05-07T11:14:55.183Z,21.70
2018-05-07T11:17:22.761Z,21.70
2018-05-07T11:19:50.270Z,21.70
2018-05-07T11:22:18.658Z,21.70
2018-05-07T11:24:46.730Z,21.80
2018-05-07T11:27:14.190Z,21.80
2018-05-07T11:29:42.514Z,21.90
2018-05-07T11:32:09.979Z,22.00
2018-05-07T11:34:37.438Z,22.00
2018-05-07T11:37:06.060Z,22.10
2018-05-07T11:39:33.534Z,22.20
2018-05-07T11:42:01.012Z,22.20
2018-05-07T11:44:28.491Z,22.30
2018-05-07T11:46:57.100Z,22.30
2018-05-07T11:49:24.576Z,22.40
2018-05-07T11:51:52.035Z,22.40
2018-05-07T11:54:19.537Z,22.50
2018-05-07T11:56:46.994Z,22.50
2018-05-07T11:59:15.024Z,22.60
2018-05-07T12:01:42.499Z,22.60
2018-05-07T12:04:09.961Z,22.60
2018-05-07T12:06:37.691Z,22.60
2018-05-07T12:09:05.971Z,22.70
2018-05-07T12:11:33.425Z,22.70
2018-05-07T12:14:00.885Z,22.70
2018-05-07T12:16:28.351Z,22.80
2018-05-07T12:18:56.822Z,22.80
2018-05-07T12:21:25.121Z,22.80
2018-05-07T12:23:52.577Z,22.80
2018-05-07T12:26:20.048Z,22.80
2018-05-07T12:28:47.504Z,22.90
2018-05-07T12:31:15.036Z,22.90
2018-05-07T12:33:42.523Z,22.90
2018-05-07T12:36:11.837Z,22.90
2018-05-07T12:38:39.596Z,23.00
2018-05-07T12:41:07.061Z,23.00
2018-05-07T12:43:35.523Z,23.00
2018-05-07T12:46:03.986Z,23.00
2018-05-07T12:48:32.297Z,23.10
2018-05-07T12:51:00.627Z,23.20
2018-05-07T12:53:28.818Z,23.20
2018-05-07T12:55:56.302Z,23.20
2018-05-07T12:58:24.215Z,23.20
2018-05-07T13:00:52.886Z,23.30
2018-05-07T13:03:20.354Z,23.30
2018-05-07T13:05:48.544Z,23.30
2018-05-07T13:08:15.997Z,23.30
2018-05-07T13:10:44.330Z,23.40
2018-05-07T13:13:12.566Z,23.40
2018-05-07T13:15:40.809Z,23.40
2018-05-07T13:18:08.273Z,23.40
2018-05-07T13:20:35.730Z,23.50
2018-05-07T13:23:03.210Z,23.50
2018-05-07T13:25:30.670Z,23.50
2018-05-07T13:27:59.553Z,23.60
2018-05-07T13:30:27.009Z,23.60
2018-05-07T13:32:54.486Z,23.60
2018-05-07T13:35:21.950Z,23.70
2018-05-07T13:37:49.409Z,23.70
2018-05-07T13:40:18.479Z,23.70
2018-05-07T13:42:47.401Z,23.70
2018-05-07T13:45:14.868Z,23.80
2018-05-07T13:47:43.742Z,23.80
2018-05-07T13:50:11.222Z,23.80
2018-05-07T13:52:38.684Z,23.80
2018-05-07T13:55:07.606Z,23.90
2018-05-07T13:57:35.073Z,23.90
2018-05-07T14:00:02.537Z,24.00
2018-05-07T14:02:30.659Z,24.10
2018-05-07T14:04:59.111Z,24.20
2018-05-07T14:07:26.573Z,24.30
2018-05-07T14:09:54.813Z,24.60
2018-05-07T14:12:22.273Z,24.60
2018-05-07T14:14:49.757Z,24.80
2018-05-07T14:17:17.215Z,24.90
2018-05-07T14:19:44.678Z,25.00
2018-05-07T14:22:12.499Z,25.30
2018-05-07T14:24:39.947Z,25.70
2018-05-07T14:27:08.627Z,26.00
2018-05-07T14:29:36.085Z,26.50
2018-05-07T14:32:03.565Z,26.30
2018-05-07T14:34:31.097Z,26.00
2018-05-07T14:37:00.352Z,25.80
2018-05-07T14:39:27.812Z,25.70
2018-05-07T14:41:56.606Z,26.10
2018-05-07T14:44:24.749Z,26.10
2018-05-07T14:46:52.215Z,26.70
2018-05-07T14:49:19.670Z,26.60
2018-05-07T14:51:49.744Z,26.40
2018-05-07T14:54:17.985Z,26.40
2018-05-07T14:56:46.000Z,26.50
2018-05-07T14:59:14.097Z,26.20
2018-05-07T15:01:42.440Z,25.80
2018-05-07T15:04:10.488Z,25.70
2018-05-07T15:06:40.167Z,25.60
2018-05-07T15:09:10.152Z,25.50
2018-05-07T15:11:38.437Z,25.50
2018-05-07T15:14:18.045Z,25.50
2018-05-07T15:16:45.662Z,25.40
2018-05-07T15:19:13.304Z,25.30
2018-05-07T15:21:40.766Z,25.20
2018-05-07T15:24:08.258Z,25.10
2018-05-07T15:26:35.711Z,25.10
2018-05-07T15:29:03.547Z,25.00
2018-05-07T15:31:31.022Z,25.00
2018-05-07T15:33:59.145Z,24.90
2018-05-07T15:36:26.606Z,24.80
2018-05-07T15:38:54.082Z,24.90
2018-05-07T15:41:22.445Z,24.80
2018-05-07T15:43:50.544Z,24.80
2018-05-07T15:46:17.989Z,24.70
2018-05-07T15:48:46.167Z,24.70
2018-05-07T15:51:15.683Z,24.70
2018-05-07T15:53:43.281Z,24.60
2018-05-07T15:56:10.742Z,24.60
2018-05-07T15:58:38.858Z,24.60
2018-05-07T16:01:07.886Z,24.60
2018-05-07T16:03:35.934Z,24.50
2018-05-07T16:06:03.422Z,24.60
2018-05-07T16:08:32.487Z,24.50
2018-05-07T16:11:01.146Z,24.50
2018-05-07T16:13:28.600Z,24.50
2018-05-07T16:15:56.941Z,24.60
2018-05-07T16:18:24.419Z,25.00
2018-05-07T16:20:51.932Z,25.10
2018-05-07T16:23:19.700Z,25.30
2018-05-07T16:25:47.728Z,26.00
2018-05-07T16:28:15.134Z,26.00
2018-05-07T16:30:44.112Z,26.00
2018-05-07T16:33:13.319Z,25.80
2018-05-07T16:35:40.779Z,25.80
2018-05-07T16:38:08.251Z,25.60
2018-05-07T16:40:36.621Z,25.30
2018-05-07T16:43:04.090Z,25.10
2018-05-07T16:45:31.542Z,25.00
2018-05-07T16:47:59.012Z,24.90
2018-05-07T16:50:27.302Z,24.90
2018-05-07T16:52:54.766Z,24.90
2018-05-07T16:55:22.246Z,24.80
2018-05-07T16:57:50.318Z,24.70
2018-05-07T17:00:17.791Z,24.60
2018-05-07T17:02:46.311Z,24.50
2018-05-07T17:05:14.640Z,24.50
2018-05-07T17:07:44.702Z,24.40
2018-05-07T17:10:12.951Z,24.30
2018-05-07T17:12:40.712Z,24.30
2018-05-07T17:15:08.178Z,24.30
2018-05-07T17:17:36.329Z,24.20
2018-05-07T17:20:04.363Z,24.20
2018-05-07T17:22:31.822Z,24.20
2018-05-07T17:25:00.500Z,24.10
2018-05-07T17:27:29.449Z,24.10
2018-05-07T17:29:56.910Z,24.10
2018-05-07T17:32:25.528Z,24.00
2018-05-07T17:34:53.013Z,24.00
2018-05-07T17:37:22.096Z,23.90
2018-05-07T17:39:49.562Z,23.90
2018-05-07T17:42:17.029Z,23.90
2018-05-07T17:44:57.604Z,23.80
2018-05-07T17:47:37.789Z,23.80
2018-05-07T17:50:06.028Z,23.70
2018-05-07T17:52:33.496Z,23.70
2018-05-07T17:55:02.389Z,23.70
2018-05-07T17:57:29.846Z,23.60
2018-05-07T17:59:57.368Z,23.60
2018-05-07T18:02:24.802Z,23.50
2018-05-07T18:04:52.279Z,23.50
2018-05-07T18:07:20.958Z,23.40
2018-05-07T18:09:49.686Z,23.40
2018-05-07T18:12:17.465Z,23.40
2018-05-07T18:14:45.234Z,23.30
2018-05-07T18:17:12.994Z,23.30
2018-05-07T18:19:42.650Z,23.20
2018-05-07T18:22:10.640Z,23.20
2018-05-07T18:24:38.766Z,23.10
2018-05-07T18:27:06.234Z,23.10
2018-05-07T18:29:34.772Z,23.00
2018-05-07T18:32:02.506Z,23.00
2018-05-07T18:34:29.972Z,22.90
2018-05-07T18:36:57.464Z,22.90
2018-05-07T18:39:24.939Z,22.80
2018-05-07T18:41:53.268Z,22.80
2018-05-07T18:44:22.287Z,22.70
2018-05-07T18:46:49.765Z,22.70
2018-05-07T18:49:17.241Z,22.60
2018-05-07T18:51:44.775Z,22.60
2018-05-07T18:54:12.781Z,22.60
2018-05-07T18:56:40.268Z,22.50
2018-05-07T18:59:07.750Z,22.50
2018-05-07T19:01:35.205Z,22.40
2018-05-07T19:04:02.690Z,22.40
2018-05-07T19:06:31.328Z,22.30
2018-05-07T19:08:58.818Z,22.30
2018-05-07T19:11:27.730Z,22.20
2018-05-07T19:13:55.263Z,22.20
2018-05-07T19:16:22.766Z,22.10
2018-05-07T19:18:50.280Z,22.10
2018-05-07T19:21:17.842Z,22.10
2018-05-07T19:23:45.391Z,22.00
2018-05-07T19:26:14.469Z,22.00
2018-05-07T19:28:43.555Z,21.90
2018-05-07T19:31:11.035Z,21.90
2018-05-07T19:33:38.603Z,21.90
2018-05-07T19:36:06.062Z,21.80
2018-05-07T19:38:33.574Z,21.80
2018-05-07T19:41:01.054Z,21.70
2018-05-07T19:43:29.472Z,21.70
2018-05-07T19:45:59.389Z,21.60
2018-05-07T19:48:27.740Z,21.60
2018-05-07T19:50:55.114Z,21.50
2018-05-07T19:53:23.422Z,21.50
2018-05-07T19:55:51.555Z,21.50
2018-05-07T19:58:19.018Z,21.50
2018-05-07T20:00:47.151Z,21.40
2018-05-07T20:03:15.481Z,21.40
2018-05-07T20:05:43.617Z,21.40
2018-05-07T20:08:11.079Z,21.30
2018-05-07T20:10:38.546Z,21.30
2018-05-07T20:13:07.798Z,21.20
2018-05-07T20:15:35.283Z,21.20
2018-05-07T20:18:02.768Z,21.20
2018-05-07T20:20:31.982Z,21.10
2018-05-07T20:23:00.204Z,21.10
2018-05-07T20:25:27.682Z,21.10
2018-05-07T20:27:55.134Z,21.10
2018-05-07T20:30:22.698Z,21.00
2018-05-07T20:32:50.379Z,21.00
2018-05-07T20:35:18.037Z,20.90
2018-05-07T20:37:46.366Z,20.90
2018-05-07T20:40:13.998Z,20.90
2018-05-07T20:42:42.823Z,20.90
2018-05-07T20:45:10.506Z,20.90
2018-05-07T20:47:38.411Z,20.80
2018-05-07T20:50:05.879Z,20.80
2018-05-07T20:52:33.350Z,20.80
2018-05-07T20:55:02.790Z,20.70
2018-05-07T20:57:30.976Z,20.70
2018-05-07T20:59:59.257Z,20.60
2018-05-07T21:02:27.392Z,20.60
2018-05-07T21:04:55.091Z,20.60
2018-05-07T21:07:22.585Z,20.60
2018-05-07T21:09:50.089Z,20.60
2018-05-07T21:12:17.617Z,20.50
2018-05-07T21:14:45.092Z,20.50
2018-05-07T21:17:12.603Z,20.40
2018-05-07T21:19:40.106Z,20.40
2018-05-07T21:22:07.571Z,20.40
2018-05-07T21:24:35.059Z,20.40
2018-05-07T21:27:02.512Z,20.40
2018-05-07T21:29:29.981Z,20.40
2018-05-07T21:31:57.437Z,20.30
2018-05-07T21:34:29.841Z,20.30
2018-05-07T21:36:58.034Z,20.20
2018-05-07T21:39:25.518Z,20.20
2018-05-07T21:41:52.991Z,20.20
2018-05-07T21:44:21.319Z,20.20
2018-05-07T21:46:48.777Z,20.10
2018-05-07T21:49:16.371Z,20.10
2018-05-07T21:51:45.608Z,20.10
2018-05-07T21:54:13.609Z,20.00
2018-05-07T21:56:42.004Z,20.00
2018-05-07T21:59:09.498Z,19.90
2018-05-07T22:01:36.971Z,19.90
2018-05-07T22:04:06.163Z,19.80
2018-05-07T22:06:33.655Z,19.80
2018-05-07T22:09:01.149Z,19.80
2018-05-07T22:11:28.611Z,19.70
2018-05-07T22:13:56.066Z,19.70
2018-05-07T22:16:25.266Z,19.60
2018-05-07T22:18:54.319Z,19.50
2018-05-07T22:21:21.798Z,19.50
2018-05-07T22:23:49.358Z,19.50
2018-05-07T22:26:18.299Z,19.40
2018-05-07T22:28:46.750Z,19.40
2018-05-07T22:31:16.598Z,19.30
2018-05-07T22:33:44.046Z,19.30
2018-05-07T22:36:11.517Z,19.20
2018-05-07T22:38:39.574Z,19.20
2018-05-07T22:41:07.042Z,19.20
2018-05-07T22:43:34.549Z,19.10
2018-05-07T22:46:02.319Z,19.10
2018-05-07T22:48:30.071Z,19.10
2018-05-07T22:50:58.606Z,19.00
2018-05-07T22:53:27.194Z,19.00
2018-05-07T22:55:55.648Z,19.00
2018-05-07T22:58:23.890Z,18.90
2018-05-07T23:00:51.422Z,18.90
2018-05-07T23:03:18.822Z,18.90
2018-05-07T23:05:46.565Z,18.80
2018-05-07T23:08:14.202Z,18.80
2018-05-07T23:10:41.790Z,18.70
2018-05-07T23:13:09.425Z,18.70
2018-05-07T23:15:37.010Z,18.60
2018-05-07T23:18:04.774Z,18.60
2018-05-07T23:20:35.076Z,18.50
2018-05-07T23:23:03.654Z,18.50
2018-05-07T23:25:32.490Z,18.50
2018-05-07T23:28:00.803Z,18.40
2018-05-07T23:30:28.414Z,18.40
2018-05-07T23:32:56.719Z,18.40
2018-05-07T23:35:24.941Z,18.30
2018-05-07T23:37:52.414Z,18.30
2018-05-07T23:40:20.104Z,18.20
2018-05-07T23:42:47.580Z,18.20
2018-05-07T23:45:15.771Z,18.10
2018-05-07T23:47:43.357Z,18.10
2018-05-07T23:50:10.858Z,18.00
2018-05-07T23:52:38.301Z,17.90
2018-05-07T23:55:05.846Z,17.90
2018-05-07T23:57:33.913Z,17.90
